Wilshamstead, United Kingdom
Current Conditions -  °F | °C
As of 8:20 AM on Sunday 26 Oct 2014 (Local Time) from EGGW Reporting Station
Broken Clouds Broken Clouds  
Wind Chill: 52°   Ceiling: 2500
Heat Index: 52°   Visibility: 6mi
Dew Point: 46°   Wind: 7mph
Humidity: 82%   Direction: 210°SSW
Pressure: 30.12"   Gusts: NA
Location:  52.08°N, 0.45°W
Report Text: EGGW 260720Z 21006KT 9999 BKN025 11/08 Q1020
Loading
Personal Weather Stations






























Interactive Weather Map
Tropical Storm Tracking
New forecast layout! Learn more

10-Day Weather Forecast

Advertisements
Track Severe Weather on mobile